createdAt,value
2022-10-25T00:09:57.856Z,1.89
2022-10-25T00:30:03.579Z,1.72
2022-10-25T00:50:09.381Z,1.96
2022-10-25T01:10:15.573Z,1.67
2022-10-25T01:30:21.355Z,2.30
2022-10-25T01:50:27.106Z,2.52
2022-10-25T02:10:33.309Z,2.91
2022-10-25T02:30:39.049Z,2.77
2022-10-25T02:50:44.820Z,2.99
2022-10-25T03:10:50.536Z,3.55
2022-10-25T03:30:56.270Z,3.25
2022-10-25T03:51:02.501Z,3.38
2022-10-25T04:11:08.740Z,4.27
2022-10-25T04:31:14.574Z,4.45
2022-10-25T04:51:20.529Z,4.53
2022-10-25T05:11:26.328Z,3.00
2022-10-25T05:31:32.515Z,3.77
2022-10-25T05:51:38.373Z,4.52
2022-10-25T06:11:44.017Z,5.00
2022-10-25T06:31:50.161Z,4.82
2022-10-25T06:51:56.383Z,4.43
2022-10-25T07:12:02.153Z,3.94
2022-10-25T07:32:07.914Z,3.68
2022-10-25T07:52:14.599Z,3.03
2022-10-25T08:12:22.385Z,3.15
2022-10-25T08:32:25.320Z,1.90
2022-10-25T08:52:31.034Z,2.02
2022-10-25T09:12:37.298Z,1.91
2022-10-25T09:32:43.552Z,2.22
2022-10-25T09:52:49.383Z,1.95
2022-10-25T10:12:55.590Z,1.83
2022-10-25T10:33:01.256Z,1.82
2022-10-25T10:53:06.964Z,1.94
2022-10-25T11:13:12.759Z,1.32
2022-10-25T11:33:18.614Z,1.16
2022-10-25T11:53:24.490Z,0.95
2022-10-25T12:13:30.256Z,1.17
2022-10-25T12:33:36.013Z,1.18
2022-10-25T12:53:41.797Z,0.86
2022-10-25T13:13:47.526Z,0.94
2022-10-25T13:33:53.739Z,0.79
2022-10-25T13:54:00.002Z,0.85
2022-10-25T14:14:06.260Z,0.84
2022-10-25T14:34:12.029Z,0.85
2022-10-25T14:54:18.210Z,1.23
2022-10-25T15:14:24.478Z,1.02
2022-10-25T15:34:30.264Z,0.96
2022-10-25T15:54:36.458Z,0.83
2022-10-25T16:14:42.193Z,0.84
2022-10-25T16:34:48.450Z,1.06
2022-10-25T16:54:54.633Z,1.06
2022-10-25T17:15:00.832Z,1.45
2022-10-25T17:35:06.731Z,1.81
2022-10-25T17:55:12.930Z,1.53
2022-10-25T18:15:19.169Z,1.43
2022-10-25T18:35:25.062Z,1.36
2022-10-25T18:55:31.154Z,1.59
2022-10-25T19:15:37.101Z,2.39
2022-10-25T19:35:42.917Z,1.88
2022-10-25T19:55:48.783Z,1.59
2022-10-25T20:15:54.963Z,1.58
2022-10-25T20:36:00.679Z,1.43
2022-10-25T20:56:06.399Z,1.87
2022-10-25T21:16:12.130Z,1.93
2022-10-25T21:36:18.313Z,2.46
2022-10-25T21:56:24.077Z,2.86
2022-10-25T22:16:29.827Z,4.97
2022-10-25T22:36:35.646Z,5.03
2022-10-25T22:56:41.359Z,3.58
2022-10-25T23:16:47.134Z,3.67
2022-10-25T23:36:52.825Z,3.99
2022-10-25T23:56:58.594Z,3.99
